createdAt,value
2022-10-01T00:00:06.670Z,992.61
2022-10-01T00:01:06.708Z,992.58
2022-10-01T00:02:06.696Z,992.60
2022-10-01T00:03:06.807Z,992.59
2022-10-01T00:04:06.617Z,992.56
2022-10-01T00:05:06.608Z,992.58
2022-10-01T00:06:06.612Z,992.58
2022-10-01T00:07:06.590Z,992.50
2022-10-01T00:08:06.647Z,992.55
2022-10-01T00:09:06.559Z,992.46
2022-10-01T00:10:06.597Z,992.52
2022-10-01T00:11:06.540Z,992.49
2022-10-01T00:12:06.528Z,992.51
2022-10-01T00:13:06.514Z,992.53
2022-10-01T00:14:06.580Z,992.54
2022-10-01T00:15:07.130Z,992.54
2022-10-01T00:16:06.653Z,992.52
2022-10-01T00:17:06.471Z,992.53
2022-10-01T00:18:06.478Z,992.53
2022-10-01T00:19:06.442Z,992.55
2022-10-01T00:20:14.002Z,992.50
2022-10-01T00:21:07.429Z,992.48
2022-10-01T00:22:06.410Z,992.43
2022-10-01T00:23:06.398Z,992.41
2022-10-01T00:24:06.385Z,992.43
2022-10-01T00:25:06.372Z,992.37
2022-10-01T00:26:06.392Z,992.39
2022-10-01T00:27:06.402Z,992.35
2022-10-01T00:28:06.399Z,992.31
2022-10-01T00:29:06.347Z,992.33
2022-10-01T00:30:06.314Z,992.33
2022-10-01T00:31:06.360Z,992.29
2022-10-01T00:32:06.324Z,992.29
2022-10-01T00:33:06.283Z,992.28
2022-10-01T00:34:06.278Z,992.21
2022-10-01T00:35:06.263Z,992.21
2022-10-01T00:36:06.244Z,992.17
2022-10-01T00:37:06.234Z,992.21
2022-10-01T00:38:06.251Z,992.20
2022-10-01T00:39:06.233Z,992.16
2022-10-01T00:40:06.217Z,992.19
2022-10-01T00:41:06.204Z,992.13
2022-10-01T00:42:06.192Z,992.14
2022-10-01T00:43:06.436Z,992.07
2022-10-01T00:44:06.179Z,992.12
2022-10-01T00:45:06.144Z,992.06
2022-10-01T00:46:06.199Z,992.12
2022-10-01T00:47:06.126Z,992.09
2022-10-01T00:48:06.119Z,992.13
2022-10-01T00:49:06.127Z,992.02
2022-10-01T00:50:06.086Z,992.08
2022-10-01T00:51:06.075Z,992.07
2022-10-01T00:52:06.080Z,992.08
2022-10-01T00:53:06.049Z,992.05
2022-10-01T00:54:06.039Z,992.01
2022-10-01T00:55:06.060Z,992.01
2022-10-01T00:56:06.027Z,992.03
2022-10-01T00:57:06.013Z,991.99
2022-10-01T00:58:05.996Z,992.02
2022-10-01T00:59:06.003Z,991.92
2022-10-01T01:00:06.030Z,991.91
2022-10-01T01:01:06.003Z,991.96
2022-10-01T01:02:06.008Z,991.93
2022-10-01T01:03:05.945Z,991.99
2022-10-01T01:04:05.927Z,991.95
2022-10-01T01:05:05.951Z,991.98
2022-10-01T01:06:05.954Z,992.00
2022-10-01T01:07:05.910Z,991.96
2022-10-01T01:08:05.888Z,991.96
2022-10-01T01:09:05.872Z,991.93
2022-10-01T01:10:05.858Z,991.95
2022-10-01T01:11:05.838Z,991.94
2022-10-01T01:12:05.879Z,991.94
2022-10-01T01:13:05.827Z,991.85
2022-10-01T01:14:05.809Z,991.86
2022-10-01T01:15:05.821Z,991.88
2022-10-01T01:16:05.894Z,991.86
2022-10-01T01:17:05.771Z,991.77
2022-10-01T01:18:05.791Z,991.81
2022-10-01T01:19:05.787Z,991.81
2022-10-01T01:20:05.748Z,991.74
2022-10-01T01:21:05.730Z,991.71
2022-10-01T01:22:05.720Z,991.72
2022-10-01T01:23:05.730Z,991.71
2022-10-01T01:24:05.714Z,991.59
2022-10-01T01:25:05.702Z,991.60
2022-10-01T01:26:05.670Z,991.61
2022-10-01T01:27:05.665Z,991.62
2022-10-01T01:28:05.689Z,991.63
2022-10-01T01:29:05.670Z,991.60
2022-10-01T01:30:05.629Z,991.62
2022-10-01T01:31:05.653Z,991.56
2022-10-01T01:32:05.630Z,991.46
2022-10-01T01:33:05.589Z,991.53
2022-10-01T01:34:05.580Z,991.54
2022-10-01T01:35:05.602Z,991.47
2022-10-01T01:36:05.567Z,991.49
2022-10-01T01:37:05.550Z,991.46
2022-10-01T01:38:05.542Z,991.52
2022-10-01T01:39:05.530Z,991.51
2022-10-01T01:40:05.552Z,991.51
2022-10-01T01:41:05.520Z,991.46
2022-10-01T01:42:05.493Z,991.49
2022-10-01T01:43:05.501Z,991.45
2022-10-01T01:44:05.470Z,991.46
2022-10-01T01:45:05.466Z,991.48
2022-10-01T01:46:05.593Z,991.47
2022-10-01T01:47:05.438Z,991.49
2022-10-01T01:48:05.421Z,991.48
2022-10-01T01:49:05.463Z,991.51
2022-10-01T01:50:05.411Z,991.45
2022-10-01T01:51:05.394Z,991.44
2022-10-01T01:52:05.427Z,991.41
2022-10-01T01:53:05.384Z,991.39
2022-10-01T01:54:05.343Z,991.43
2022-10-01T01:55:05.340Z,991.40
2022-10-01T01:56:05.326Z,991.41
2022-10-01T01:57:05.334Z,991.48
2022-10-01T01:58:05.335Z,991.44
2022-10-01T01:59:05.326Z,991.37
2022-10-01T02:00:05.303Z,991.37
2022-10-01T02:01:05.340Z,991.33
2022-10-01T02:02:05.387Z,991.34
2022-10-01T02:03:05.265Z,991.33
2022-10-01T02:04:05.280Z,991.31
2022-10-01T02:05:05.246Z,991.33
2022-10-01T02:06:05.219Z,991.27
2022-10-01T02:07:05.196Z,991.34
2022-10-01T02:08:05.194Z,991.25
2022-10-01T02:09:05.185Z,991.28
2022-10-01T02:10:05.252Z,991.33
2022-10-01T02:11:05.184Z,991.28
2022-10-01T02:12:05.246Z,991.31
2022-10-01T02:13:05.143Z,991.26
2022-10-01T02:14:05.124Z,991.29
2022-10-01T02:15:05.144Z,991.23
2022-10-01T02:16:05.205Z,991.15
2022-10-01T02:17:05.086Z,991.21
2022-10-01T02:18:05.074Z,991.23
2022-10-01T02:19:05.066Z,991.19
2022-10-01T02:20:05.218Z,991.20
2022-10-01T02:21:05.037Z,991.24
2022-10-01T02:22:05.087Z,991.19
2022-10-01T02:23:05.018Z,991.16
2022-10-01T02:24:05.018Z,991.23
2022-10-01T02:25:04.992Z,991.23
2022-10-01T02:26:04.979Z,991.24
2022-10-01T02:27:04.978Z,991.20
2022-10-01T02:28:05.052Z,991.23
2022-10-01T02:29:04.951Z,991.17
2022-10-01T02:30:04.959Z,991.21
2022-10-01T02:31:05.189Z,991.19
2022-10-01T02:32:04.908Z,991.23
2022-10-01T02:33:04.976Z,991.15
2022-10-01T02:34:05.578Z,991.09
2022-10-01T02:35:04.889Z,991.12
2022-10-01T02:36:04.909Z,991.12
2022-10-01T02:37:04.861Z,991.09
2022-10-01T02:38:04.854Z,991.03
2022-10-01T02:39:04.906Z,991.06
2022-10-01T02:40:04.830Z,991.03
2022-10-01T02:41:04.810Z,991.12
2022-10-01T02:42:04.815Z,991.04
2022-10-01T02:43:04.785Z,991.10
2022-10-01T02:44:04.780Z,991.06
2022-10-01T02:45:04.796Z,991.09
2022-10-01T02:46:04.815Z,991.20
2022-10-01T02:47:04.741Z,991.14
2022-10-01T02:48:04.729Z,991.04
2022-10-01T02:49:04.943Z,991.02
2022-10-01T02:50:04.738Z,991.02
2022-10-01T02:51:04.701Z,991.09
2022-10-01T02:52:04.691Z,991.03
2022-10-01T02:53:04.680Z,990.98
2022-10-01T02:54:04.654Z,991.01
2022-10-01T02:55:04.720Z,990.97
2022-10-01T02:56:04.663Z,990.88
2022-10-01T02:57:04.631Z,990.95
2022-10-01T02:58:04.623Z,990.94
2022-10-01T02:59:04.618Z,990.87
2022-10-01T03:00:04.633Z,990.95
2022-10-01T03:01:04.591Z,990.83
2022-10-01T03:02:04.714Z,990.79
2022-10-01T03:03:04.562Z,990.75
2022-10-01T03:04:04.566Z,990.75
2022-10-01T03:05:04.571Z,990.70
2022-10-01T03:06:04.524Z,990.68
2022-10-01T03:07:04.513Z,990.65
2022-10-01T03:08:04.527Z,990.67
2022-10-01T03:09:04.495Z,990.66
2022-10-01T03:10:04.483Z,990.67
2022-10-01T03:11:04.475Z,990.67
2022-10-01T03:12:04.466Z,990.71
2022-10-01T03:13:04.455Z,990.70
2022-10-01T03:14:04.454Z,990.76
2022-10-01T03:15:04.545Z,990.71
2022-10-01T03:16:04.477Z,990.74
2022-10-01T03:17:04.437Z,990.74
2022-10-01T03:18:04.385Z,990.69
2022-10-01T03:19:04.389Z,990.77
2022-10-01T03:20:04.432Z,990.75
2022-10-01T03:21:04.355Z,990.83
2022-10-01T03:22:04.347Z,990.81
2022-10-01T03:23:04.328Z,990.77
2022-10-01T03:24:04.330Z,990.83
2022-10-01T03:25:04.296Z,990.86
2022-10-01T03:26:04.435Z,990.89
2022-10-01T03:27:04.276Z,990.82
2022-10-01T03:28:04.344Z,990.80
2022-10-01T03:29:04.258Z,990.73
2022-10-01T03:30:04.268Z,990.71
2022-10-01T03:31:04.275Z,990.76
2022-10-01T03:32:04.250Z,990.84
2022-10-01T03:33:04.218Z,990.80
2022-10-01T03:34:04.212Z,990.79
2022-10-01T03:35:04.189Z,990.76
2022-10-01T03:36:04.187Z,990.78
2022-10-01T03:37:04.200Z,990.87
2022-10-01T03:38:04.164Z,990.76
2022-10-01T03:39:04.140Z,990.86
2022-10-01T03:40:04.161Z,990.84
2022-10-01T03:41:04.129Z,990.76
2022-10-01T03:42:04.108Z,990.75
2022-10-01T03:43:04.120Z,990.74
2022-10-01T03:44:04.103Z,990.74
2022-10-01T03:45:04.081Z,990.77
2022-10-01T03:46:04.190Z,990.71
2022-10-01T03:47:04.049Z,990.78
2022-10-01T03:48:04.060Z,990.72
2022-10-01T03:49:04.055Z,990.70
2022-10-01T03:50:04.010Z,990.63
2022-10-01T03:51:04.000Z,990.64
2022-10-01T03:52:04.012Z,990.59
2022-10-01T03:53:03.989Z,990.55
2022-10-01T03:54:03.970Z,990.63
2022-10-01T03:55:03.980Z,990.62
2022-10-01T03:56:03.941Z,990.61
2022-10-01T03:57:03.948Z,990.56
2022-10-01T03:58:03.924Z,990.58
2022-10-01T03:59:03.922Z,990.51
2022-10-01T04:00:03.892Z,990.58
2022-10-01T04:01:03.925Z,990.57
2022-10-01T04:02:03.956Z,990.54
2022-10-01T04:03:03.932Z,990.60
2022-10-01T04:04:03.861Z,990.57
2022-10-01T04:05:03.882Z,990.58
2022-10-01T04:06:03.859Z,990.60
2022-10-01T04:07:03.823Z,990.62
2022-10-01T04:08:03.803Z,990.66
2022-10-01T04:09:03.795Z,990.63
2022-10-01T04:10:03.781Z,990.59
2022-10-01T04:11:03.774Z,990.59
2022-10-01T04:12:03.813Z,990.59
2022-10-01T04:13:03.753Z,990.59
2022-10-01T04:14:03.743Z,990.57
2022-10-01T04:15:03.723Z,990.49
2022-10-01T04:16:03.772Z,990.57
2022-10-01T04:17:03.704Z,990.57
2022-10-01T04:18:03.743Z,990.55
2022-10-01T04:19:03.691Z,990.54
2022-10-01T04:20:03.674Z,990.52
2022-10-01T04:21:03.699Z,990.44
2022-10-01T04:22:03.647Z,990.51
2022-10-01T04:23:03.724Z,990.51
2022-10-01T04:24:03.644Z,990.45
2022-10-01T04:25:03.622Z,990.47
2022-10-01T04:26:03.603Z,990.47
2022-10-01T04:27:03.588Z,990.47
2022-10-01T04:28:03.609Z,990.44
2022-10-01T04:29:03.575Z,990.40
2022-10-01T04:30:03.575Z,990.44
2022-10-01T04:31:03.546Z,990.39
2022-10-01T04:32:03.623Z,990.44
2022-10-01T04:33:03.552Z,990.40
2022-10-01T04:34:03.506Z,990.37
2022-10-01T04:35:03.546Z,990.30
2022-10-01T04:36:03.486Z,990.35
2022-10-01T04:37:03.477Z,990.29
2022-10-01T04:38:03.516Z,990.33
2022-10-01T04:39:03.467Z,990.37
2022-10-01T04:40:03.448Z,990.35
2022-10-01T04:41:03.457Z,990.28
2022-10-01T04:42:03.409Z,990.30
2022-10-01T04:43:03.417Z,990.26
2022-10-01T04:44:03.389Z,990.28
2022-10-01T04:45:03.379Z,990.23
2022-10-01T04:46:03.379Z,990.20
2022-10-01T04:47:03.411Z,990.18
2022-10-01T04:48:03.338Z,990.12
2022-10-01T04:49:03.338Z,990.10
2022-10-01T04:50:03.327Z,990.06
2022-10-01T04:51:03.340Z,990.02
2022-10-01T04:52:03.329Z,990.03
2022-10-01T04:53:03.302Z,990.03
2022-10-01T04:54:03.279Z,990.07
2022-10-01T04:55:03.271Z,989.98
2022-10-01T04:56:03.251Z,990.04
2022-10-01T04:57:03.261Z,989.97
2022-10-01T04:58:03.261Z,990.00
2022-10-01T04:59:03.228Z,990.08
2022-10-01T05:00:03.210Z,989.99
2022-10-01T05:01:03.249Z,989.91
2022-10-01T05:02:03.226Z,989.92
2022-10-01T05:03:03.189Z,989.93
2022-10-01T05:04:03.193Z,989.95
2022-10-01T05:05:03.191Z,989.94
2022-10-01T05:06:03.144Z,989.85
2022-10-01T05:07:03.150Z,989.88
2022-10-01T05:08:03.123Z,989.84
2022-10-01T05:09:03.109Z,989.90
2022-10-01T05:10:03.110Z,989.88
2022-10-01T05:11:03.113Z,989.91
2022-10-01T05:12:03.081Z,989.98
2022-10-01T05:13:03.065Z,990.07
2022-10-01T05:14:03.071Z,990.07
2022-10-01T05:15:03.179Z,990.04
2022-10-01T05:16:03.111Z,990.08
2022-10-01T05:17:03.011Z,990.16
2022-10-01T05:18:03.005Z,990.16
2022-10-01T05:19:03.004Z,990.23
2022-10-01T05:20:02.998Z,990.31
2022-10-01T05:21:02.992Z,990.32
2022-10-01T05:22:02.952Z,990.42
2022-10-01T05:23:02.943Z,990.44
2022-10-01T05:24:02.995Z,990.52
2022-10-01T05:25:02.933Z,990.46
2022-10-01T05:26:02.915Z,990.42
2022-10-01T05:27:02.928Z,990.39
2022-10-01T05:28:02.950Z,990.27
2022-10-01T05:29:02.874Z,990.22
2022-10-01T05:30:02.865Z,990.03
2022-10-01T05:31:02.906Z,990.00
2022-10-01T05:32:02.941Z,989.90
2022-10-01T05:33:02.872Z,989.79
2022-10-01T05:34:02.824Z,989.77
2022-10-01T05:35:02.828Z,989.63
2022-10-01T05:36:02.842Z,989.59
2022-10-01T05:37:02.791Z,989.54
2022-10-01T05:38:02.794Z,989.68
2022-10-01T05:39:02.760Z,989.76
2022-10-01T05:40:02.745Z,989.87
2022-10-01T05:41:02.754Z,989.88
2022-10-01T05:42:06.016Z,989.90
2022-10-01T05:43:02.765Z,989.81
2022-10-01T05:44:02.715Z,989.77
2022-10-01T05:45:02.706Z,989.69
2022-10-01T05:46:02.765Z,989.67
2022-10-01T05:47:02.687Z,989.66
2022-10-01T05:48:02.666Z,989.51
2022-10-01T05:49:02.668Z,989.53
2022-10-01T05:50:02.629Z,989.42
2022-10-01T05:51:02.617Z,989.43
2022-10-01T05:52:02.606Z,989.45
2022-10-01T05:53:02.598Z,989.45
2022-10-01T05:54:02.618Z,989.37
2022-10-01T05:55:02.598Z,989.38
2022-10-01T05:56:02.567Z,989.36
2022-10-01T05:57:02.549Z,989.36
2022-10-01T05:58:02.539Z,989.29
2022-10-01T05:59:02.528Z,989.21
2022-10-01T06:00:02.567Z,989.27
2022-10-01T06:01:02.508Z,989.25
2022-10-01T06:02:02.554Z,989.26
2022-10-01T06:03:02.687Z,989.16
2022-10-01T06:04:02.470Z,989.25
2022-10-01T06:05:02.459Z,989.22
2022-10-01T06:06:02.470Z,989.28
2022-10-01T06:07:02.434Z,989.21
2022-10-01T06:08:02.423Z,989.22
2022-10-01T06:09:02.439Z,989.26
2022-10-01T06:10:02.461Z,989.20
2022-10-01T06:11:02.431Z,989.28
2022-10-01T06:12:02.380Z,989.23
2022-10-01T06:13:02.362Z,989.27
2022-10-01T06:14:02.360Z,989.11
2022-10-01T06:15:02.355Z,989.19
2022-10-01T06:16:02.476Z,989.21
2022-10-01T06:17:02.390Z,989.14
2022-10-01T06:18:02.338Z,989.21
2022-10-01T06:19:02.810Z,989.16
2022-10-01T06:20:02.282Z,989.14
2022-10-01T06:21:02.276Z,989.13
2022-10-01T06:22:02.260Z,989.07
2022-10-01T06:23:02.341Z,989.16
2022-10-01T06:24:02.257Z,989.12
2022-10-01T06:25:02.253Z,989.14
2022-10-01T06:26:02.219Z,989.13
2022-10-01T06:27:02.223Z,989.14
2022-10-01T06:28:02.230Z,989.21
2022-10-01T06:29:02.225Z,989.16
2022-10-01T06:30:02.214Z,989.13
2022-10-01T06:31:02.154Z,989.11
2022-10-01T06:32:02.221Z,989.09
2022-10-01T06:33:02.123Z,989.01
2022-10-01T06:34:02.128Z,989.23
2022-10-01T06:35:02.140Z,989.24
2022-10-01T06:36:02.105Z,989.24
2022-10-01T06:37:02.114Z,989.29
2022-10-01T06:38:02.075Z,989.21
2022-10-01T06:39:02.062Z,989.23
2022-10-01T06:40:02.044Z,989.23
2022-10-01T06:41:02.078Z,989.31
2022-10-01T06:42:02.148Z,989.25
2022-10-01T06:43:02.019Z,989.19
2022-10-01T06:44:01.995Z,989.22
2022-10-01T06:45:01.996Z,989.34
2022-10-01T06:46:02.048Z,989.30
2022-10-01T06:47:01.993Z,989.32
2022-10-01T06:48:02.005Z,989.22
2022-10-01T06:49:01.945Z,989.03
2022-10-01T06:50:01.954Z,989.03
2022-10-01T06:51:01.916Z,989.07
2022-10-01T06:52:01.931Z,989.14
2022-10-01T06:53:01.908Z,989.20
2022-10-01T06:54:01.884Z,989.18
2022-10-01T06:55:01.896Z,989.20
2022-10-01T06:56:01.854Z,989.14
2022-10-01T06:57:01.847Z,989.09
2022-10-01T06:58:01.884Z,989.02
2022-10-01T06:59:01.815Z,988.98
2022-10-01T07:00:01.877Z,988.99
2022-10-01T07:01:01.900Z,988.94
2022-10-01T07:02:01.828Z,988.98
2022-10-01T07:03:01.807Z,988.95
2022-10-01T07:04:01.777Z,989.06
2022-10-01T07:05:01.756Z,989.04
2022-10-01T07:06:01.787Z,989.01
2022-10-01T07:07:01.728Z,989.06
2022-10-01T07:08:01.728Z,989.07
2022-10-01T07:09:01.730Z,989.09
2022-10-01T07:10:01.859Z,989.08
2022-10-01T07:11:01.839Z,988.98
2022-10-01T07:12:01.679Z,988.90
2022-10-01T07:13:01.661Z,988.85
2022-10-01T07:14:01.649Z,988.85
2022-10-01T07:15:01.678Z,988.81
2022-10-01T07:16:01.656Z,988.77
2022-10-01T07:17:01.608Z,988.75
2022-10-01T07:18:01.594Z,988.62
2022-10-01T07:19:01.599Z,988.67
2022-10-01T07:20:01.591Z,988.59
2022-10-01T07:21:01.602Z,988.57
2022-10-01T07:22:01.622Z,988.50
2022-10-01T07:23:01.717Z,988.62
2022-10-01T07:24:01.521Z,988.73
2022-10-01T07:25:01.538Z,988.70
2022-10-01T07:26:01.502Z,988.77
2022-10-01T07:27:06.459Z,988.68
2022-10-01T07:28:02.516Z,988.69
2022-10-01T07:29:01.470Z,988.60
2022-10-01T07:30:01.511Z,988.61
2022-10-01T07:31:01.451Z,988.49
2022-10-01T07:32:01.548Z,988.53
2022-10-01T07:33:01.450Z,988.59
2022-10-01T07:34:01.401Z,988.50
2022-10-01T07:35:01.401Z,988.51
2022-10-01T07:36:01.394Z,988.57
2022-10-01T07:37:01.381Z,988.56
2022-10-01T07:38:01.402Z,988.62
2022-10-01T07:39:01.361Z,988.50
2022-10-01T07:40:05.398Z,988.68
2022-10-01T07:41:02.338Z,988.63
2022-10-01T07:42:01.338Z,988.48
2022-10-01T07:43:01.303Z,988.51
2022-10-01T07:44:01.318Z,988.45
2022-10-01T07:45:01.283Z,988.27
2022-10-01T07:46:01.307Z,988.21
2022-10-01T07:47:01.288Z,988.17
2022-10-01T07:48:01.268Z,988.10
2022-10-01T07:49:01.265Z,988.07
2022-10-01T07:50:01.234Z,988.10
2022-10-01T07:51:01.207Z,988.27
2022-10-01T07:52:01.910Z,988.35
2022-10-01T07:53:01.367Z,988.35
2022-10-01T07:54:01.306Z,988.36
2022-10-01T07:55:01.202Z,988.37
2022-10-01T07:56:01.221Z,988.40
2022-10-01T07:57:01.137Z,988.36
2022-10-01T07:58:01.175Z,988.43
2022-10-01T07:59:01.116Z,988.40
2022-10-01T08:00:01.117Z,988.40
2022-10-01T08:01:01.287Z,988.40
2022-10-01T08:02:01.155Z,988.45
2022-10-01T08:03:01.085Z,988.42
2022-10-01T08:04:01.066Z,988.54
2022-10-01T08:05:01.057Z,988.53
2022-10-01T08:06:01.055Z,988.55
2022-10-01T08:07:01.077Z,988.59
2022-10-01T08:08:01.026Z,988.56
2022-10-01T08:09:01.006Z,988.58
2022-10-01T08:10:01.016Z,988.57
2022-10-01T08:11:01.009Z,988.53
2022-10-01T08:12:00.971Z,988.54
2022-10-01T08:13:02.507Z,988.59
2022-10-01T08:14:01.062Z,988.69
2022-10-01T08:15:00.947Z,988.68
2022-10-01T08:16:00.988Z,988.76
2022-10-01T08:17:00.978Z,988.73
2022-10-01T08:18:00.927Z,988.77
2022-10-01T08:19:00.878Z,988.75
2022-10-01T08:20:00.888Z,988.72
2022-10-01T08:21:00.873Z,988.83
2022-10-01T08:22:00.868Z,988.77
2022-10-01T08:23:00.899Z,988.80
2022-10-01T08:24:00.858Z,988.78
2022-10-01T08:25:00.916Z,988.73
2022-10-01T08:26:00.801Z,988.76
2022-10-01T08:27:00.793Z,988.72
2022-10-01T08:28:00.823Z,988.71
2022-10-01T08:29:00.770Z,988.76
2022-10-01T08:30:00.779Z,988.70
2022-10-01T08:31:00.761Z,988.77
2022-10-01T08:32:00.782Z,988.73
2022-10-01T08:33:00.756Z,988.73
2022-10-01T08:34:00.710Z,988.74
2022-10-01T08:35:00.730Z,988.76
2022-10-01T08:36:00.704Z,988.76
2022-10-01T08:37:00.700Z,988.79
2022-10-01T08:38:00.661Z,988.88
2022-10-01T08:39:00.652Z,988.90
2022-10-01T08:40:00.643Z,988.89
2022-10-01T08:41:00.651Z,988.88
2022-10-01T08:42:00.622Z,988.78
2022-10-01T08:43:00.611Z,988.93
2022-10-01T08:44:00.828Z,988.86
2022-10-01T08:45:00.582Z,988.89
2022-10-01T08:46:00.665Z,988.81
2022-10-01T08:47:00.581Z,988.86
2022-10-01T08:48:00.544Z,988.88
2022-10-01T08:49:00.543Z,988.92
2022-10-01T08:50:00.543Z,988.86
2022-10-01T08:51:00.511Z,988.87
2022-10-01T08:52:00.523Z,988.81
2022-10-01T08:53:00.515Z,988.74
2022-10-01T08:54:00.489Z,988.79
2022-10-01T08:55:00.476Z,988.72
2022-10-01T08:56:00.482Z,988.80
2022-10-01T08:57:00.449Z,988.76
2022-10-01T08:58:00.470Z,988.85
2022-10-01T08:59:00.434Z,988.77
2022-10-01T09:00:00.466Z,988.77
2022-10-01T09:01:00.547Z,988.79
2022-10-01T09:02:00.398Z,988.75
2022-10-01T09:03:00.381Z,988.82
2022-10-01T09:04:00.437Z,988.74
2022-10-01T09:05:01.910Z,988.70
2022-10-01T09:06:00.344Z,988.66
2022-10-01T09:07:00.333Z,988.68
2022-10-01T09:08:00.324Z,988.63
2022-10-01T09:09:00.309Z,988.66
2022-10-01T09:10:00.322Z,988.67
2022-10-01T09:11:00.287Z,988.72
2022-10-01T09:12:00.277Z,988.76
2022-10-01T09:13:00.268Z,988.71
2022-10-01T09:14:00.249Z,988.63
2022-10-01T09:15:00.258Z,988.71
2022-10-01T09:16:00.299Z,988.62
2022-10-01T09:17:00.207Z,988.76
2022-10-01T09:18:00.227Z,988.79
2022-10-01T09:19:00.189Z,988.82
2022-10-01T09:20:00.256Z,988.90
2022-10-01T09:21:00.161Z,988.89
2022-10-01T09:22:00.198Z,988.91
2022-10-01T09:23:00.138Z,988.86
2022-10-01T09:24:00.899Z,988.84
2022-10-01T09:25:00.160Z,988.90
2022-10-01T09:26:00.214Z,988.84
2022-10-01T09:27:00.100Z,988.93
2022-10-01T09:28:00.230Z,988.88
2022-10-01T09:29:00.115Z,988.91
2022-10-01T09:30:00.091Z,988.91
2022-10-01T09:31:00.079Z,988.89
2022-10-01T09:32:00.144Z,988.84
2022-10-01T09:33:00.021Z,988.87
2022-10-01T09:34:00.045Z,988.81
2022-10-01T09:35:04.060Z,988.94
2022-10-01T09:35:59.992Z,988.87
2022-10-01T09:36:59.982Z,988.83
2022-10-01T09:37:59.978Z,988.78
2022-10-01T09:38:59.998Z,988.81
2022-10-01T09:39:59.974Z,988.90
2022-10-01T09:40:59.953Z,988.89
2022-10-01T09:41:59.929Z,988.86
2022-10-01T09:42:59.932Z,988.87
2022-10-01T09:43:59.899Z,988.88
2022-10-01T09:44:59.912Z,988.77
2022-10-01T09:45:59.910Z,988.72
2022-10-01T09:46:59.862Z,988.75
2022-10-01T09:47:59.861Z,988.80
2022-10-01T09:48:59.844Z,988.80
2022-10-01T09:49:59.834Z,988.74
2022-10-01T09:50:59.946Z,988.75
2022-10-01T09:51:59.808Z,988.74
2022-10-01T09:52:59.793Z,988.71
2022-10-01T09:53:59.786Z,988.72
2022-10-01T09:54:59.773Z,988.82
2022-10-01T09:55:59.776Z,988.80
2022-10-01T09:56:59.753Z,988.83
2022-10-01T09:57:59.733Z,988.70
2022-10-01T09:58:59.728Z,988.70
2022-10-01T09:59:59.726Z,988.69
2022-10-01T10:00:59.735Z,988.74
2022-10-01T10:01:59.848Z,988.64
2022-10-01T10:02:59.853Z,988.69
2022-10-01T10:03:59.667Z,988.72
2022-10-01T10:04:59.672Z,988.69
2022-10-01T10:05:59.670Z,988.78
2022-10-01T10:06:59.630Z,988.73
2022-10-01T10:07:59.655Z,988.73
2022-10-01T10:08:59.617Z,988.76
2022-10-01T10:09:59.646Z,988.76
2022-10-01T10:10:59.585Z,988.79
2022-10-01T10:11:59.572Z,988.82
2022-10-01T10:12:59.596Z,988.76
2022-10-01T10:13:59.547Z,988.75
2022-10-01T10:14:59.547Z,988.80
2022-10-01T10:15:59.587Z,988.82
2022-10-01T10:16:59.512Z,988.85
2022-10-01T10:17:59.488Z,988.84
2022-10-01T10:18:59.510Z,988.80
2022-10-01T10:19:59.468Z,988.89
2022-10-01T10:20:59.469Z,988.89
2022-10-01T10:21:59.448Z,988.83
2022-10-01T10:22:59.453Z,988.89
2022-10-01T10:23:59.431Z,988.93
2022-10-01T10:24:59.448Z,988.83
2022-10-01T10:25:59.411Z,988.89
2022-10-01T10:26:59.407Z,988.94
2022-10-01T10:27:59.507Z,988.95
2022-10-01T10:28:59.371Z,988.94
2022-10-01T10:29:59.382Z,988.79
2022-10-01T10:30:59.352Z,988.85
2022-10-01T10:31:59.393Z,988.91
2022-10-01T10:32:59.321Z,988.91
2022-10-01T10:33:59.320Z,988.96
2022-10-01T10:35:02.883Z,988.92
2022-10-01T10:35:59.312Z,988.88
2022-10-01T10:36:59.293Z,989.09
2022-10-01T10:37:59.294Z,989.06
2022-10-01T10:38:59.262Z,989.01
2022-10-01T10:39:59.281Z,989.08
2022-10-01T10:40:59.247Z,989.04
2022-10-01T10:41:59.264Z,988.98
2022-10-01T10:42:59.229Z,989.11
2022-10-01T10:43:59.202Z,989.04
2022-10-01T10:44:59.220Z,989.02
2022-10-01T10:45:59.222Z,989.09
2022-10-01T10:46:59.176Z,989.17
2022-10-01T10:47:59.191Z,989.04
2022-10-01T10:48:59.143Z,989.13
2022-10-01T10:49:59.137Z,989.12
2022-10-01T10:50:59.155Z,989.02
2022-10-01T10:51:59.104Z,989.07
2022-10-01T10:52:59.788Z,989.00
2022-10-01T10:53:59.109Z,988.96
2022-10-01T10:54:59.085Z,988.96
2022-10-01T10:55:59.065Z,988.94
2022-10-01T10:56:59.050Z,988.95
2022-10-01T10:58:02.193Z,988.92
2022-10-01T10:59:00.054Z,988.95
2022-10-01T10:59:59.068Z,988.97
2022-10-01T11:00:59.055Z,988.95
2022-10-01T11:01:59.128Z,988.90
2022-10-01T11:02:59.002Z,988.88
2022-10-01T11:03:58.968Z,988.97
2022-10-01T11:04:58.949Z,988.93
2022-10-01T11:05:58.968Z,988.96
2022-10-01T11:06:58.934Z,988.92
2022-10-01T11:07:58.938Z,988.94
2022-10-01T11:08:58.937Z,988.94
2022-10-01T11:09:58.915Z,988.98
2022-10-01T11:10:58.908Z,989.02
2022-10-01T11:11:58.888Z,988.98
2022-10-01T11:12:58.879Z,988.87
2022-10-01T11:13:58.867Z,988.91
2022-10-01T11:14:58.879Z,989.00
2022-10-01T11:15:58.885Z,989.07
2022-10-01T11:16:58.840Z,989.07
2022-10-01T11:17:58.814Z,989.11
2022-10-01T11:18:58.793Z,989.10
2022-10-01T11:19:58.841Z,989.12
2022-10-01T11:20:58.810Z,989.04
2022-10-01T11:21:58.766Z,989.12
2022-10-01T11:22:58.780Z,989.15
2022-10-01T11:23:58.763Z,989.16
2022-10-01T11:24:58.752Z,989.09
2022-10-01T11:25:58.725Z,989.16
2022-10-01T11:26:58.703Z,989.17
2022-10-01T11:27:58.740Z,989.13
2022-10-01T11:28:58.702Z,989.14
2022-10-01T11:29:58.693Z,989.11
2022-10-01T11:30:58.739Z,989.11
2022-10-01T11:31:58.643Z,989.14
2022-10-01T11:32:58.663Z,989.18
2022-10-01T11:33:58.624Z,989.15
2022-10-01T11:34:58.642Z,989.22
2022-10-01T11:35:58.593Z,989.13
2022-10-01T11:36:58.585Z,989.28
2022-10-01T11:37:58.579Z,989.16
2022-10-01T11:38:58.569Z,989.26
2022-10-01T11:39:58.555Z,989.23
2022-10-01T11:40:58.564Z,989.23
2022-10-01T11:41:58.557Z,989.24
2022-10-01T11:42:58.537Z,989.26
2022-10-01T11:43:58.538Z,989.33
2022-10-01T11:45:00.705Z,989.29
2022-10-01T11:45:58.544Z,989.35
2022-10-01T11:46:58.615Z,989.28
2022-10-01T11:47:58.464Z,989.35
2022-10-01T11:48:58.446Z,989.27
2022-10-01T11:49:58.436Z,989.33
2022-10-01T11:50:58.447Z,989.25
2022-10-01T11:51:58.445Z,989.29
2022-10-01T11:52:58.396Z,989.24
2022-10-01T11:53:58.391Z,989.22
2022-10-01T11:54:58.377Z,989.31
2022-10-01T11:55:58.357Z,989.26
2022-10-01T11:56:58.359Z,989.25
2022-10-01T11:57:58.357Z,989.28
2022-10-01T11:58:58.409Z,989.17
2022-10-01T11:59:58.334Z,989.18
2022-10-01T12:00:58.309Z,989.22
2022-10-01T12:01:58.374Z,989.19
2022-10-01T12:02:58.311Z,989.30
2022-10-01T12:03:58.300Z,989.30
2022-10-01T12:04:58.302Z,989.36
2022-10-01T12:05:58.279Z,989.27
2022-10-01T12:06:58.239Z,989.30
2022-10-01T12:07:58.229Z,989.27
2022-10-01T12:08:58.232Z,989.34
2022-10-01T12:09:58.227Z,989.40
2022-10-01T12:10:58.182Z,989.36
2022-10-01T12:11:58.181Z,989.34
2022-10-01T12:12:58.164Z,989.30
2022-10-01T12:13:58.187Z,989.26
2022-10-01T12:14:59.830Z,989.31
2022-10-01T12:15:58.159Z,989.29
2022-10-01T12:16:58.128Z,989.27
2022-10-01T12:17:58.138Z,989.31
2022-10-01T12:18:58.105Z,989.36
2022-10-01T12:19:58.125Z,989.31
2022-10-01T12:20:58.078Z,989.37
2022-10-01T12:21:58.074Z,989.39
2022-10-01T12:22:58.046Z,989.41
2022-10-01T12:23:58.045Z,989.38
2022-10-01T12:24:58.028Z,989.29
2022-10-01T12:25:58.055Z,989.34
2022-10-01T12:26:58.003Z,989.37
2022-10-01T12:27:58.015Z,989.36